Historique des mesures à Cassis (13260), France
Quotidien Résumé Mars 1, 2017 Unités:  US    Métrique   Métrique/US
« Précédent (Jour)
Suivant (Jour) »
Quotidien Hebdomadaire Mensuel Annuel Période au choix
  Maximum: Minimum: Moyenne:
Température: 32 °F 43.9 °F 50.4 °F
Point de rosée: 32 °F 30.7 °F 36.9 °F
Humidité: Humidity % 49 % 57 %
Vitesse du vent: WindSpeedKMH mph 0.0 mph 5.8 mph
Rafales: WindSpeedGustKMH mph - -
Vent:- - SW
Pression: 0 in 29.8 in -
Précipitations: 0 in    
Historical Graphs
 
 
Mesures pour : Mars 1, 2017
Heure Temperature Point de rosée Pression Vent Vitesse du vent Rafales Humidité Pluie (par heure) Conditions
32 °F 32 °F 0 in Calm     Humidity % 0 in SoftwareType W/m2
00:10 48.6 °F 36.1 °F 29.8 in NE 1.8 mph 16.3 mph 62 % 0 in open2300-1.11 W/m2
01:11 48 °F 34.3 °F 29.8 in WNW 25.6 mph 25.6 mph 59 % 0 in open2300-1.11 W/m2
02:10 47.5 °F 32 °F 29.8 in NNW 4.0 mph 13.7 mph 55 % 0 in open2300-1.11 W/m2
03:11 46.6 °F 30.7 °F 29.8 in NNW 5.8 mph 5.8 mph 54 % 0 in open2300-1.11 W/m2
04:10 46 °F 31.1 °F 29.9 in WNW 8.2 mph 8.2 mph 56 % 0 in open2300-1.11 W/m2
05:11 45.7 °F 31.6 °F 29.9 in North 4.0 mph 7.2 mph 58 % 0 in open2300-1.11 W/m2
06:10 45.3 °F 32.4 °F 29.9 in Calm     60 % 0 in open2300-1.11 W/m2
07:11 43.9 °F 31.6 °F 29.9 in Calm     62 % 0 in open2300-1.11 W/m2
08:11 45.1 °F 32.5 °F 29.9 in NNE 5.8 mph 5.8 mph 61 % 0 in open2300-1.11 W/m2
09:10 48.4 °F 32.9 °F 29.9 in WNW 19.5 mph 19.5 mph 55 % 0 in open2300-1.11 W/m2
10:11 49.3 °F 34.7 °F 29.9 in North 6.4 mph 16.3 mph 57 % 0 in open2300-1.11 W/m2
11:10 51.4 °F 35.8 °F 30 in NW 9.0 mph 11.6 mph 55 % 0 in open2300-1.11 W/m2
12:11 53.2 °F 37.4 °F 30 in Calm   9.7 mph 55 % 0 in open2300-1.11 W/m2
13:10 54.5 °F 36.7 °F 30 in WNW 15.4 mph 15.8 mph 51 % 0 in open2300-1.11 W/m2
14:11 55.2 °F 36.3 °F 29.9 in WNW 22.4 mph 22.4 mph 49 % 0 in open2300-1.11 W/m2
15:10 55.9 °F 40.5 °F 29.9 in WNW 6.1 mph 12.2 mph 56 % 0 in open2300-1.11 W/m2
16:11 56.3 °F 41.2 °F 29.9 in Calm   14.3 mph 57 % 0 in open2300-1.11 W/m2
17:10 56.5 °F 39.9 °F 30 in WNW 5.5 mph 5.8 mph 54 % 0 in open2300-1.11 W/m2
18:11 54.3 °F 38.8 °F 30 in WSW 5.5 mph 5.5 mph 56 % 0 in open2300-1.11 W/m2
19:10 54.1 °F 41 °F 30 in Calm     61 % 0 in open2300-1.11 W/m2
20:11 53.8 °F 43 °F 30 in Calm     67 % 0 in open2300-1.11 W/m2
21:10 54.9 °F 45.3 °F 30 in Calm   5.5 mph 70 % 0 in open2300-1.11 W/m2
22:11 55.2 °F 46.4 °F 30 in Calm     72 % 0 in open2300-1.11 W/m2
23:10 55.6 °F 46.9 °F 30 in Calm     73 % 0 in open2300-1.11 W/m2
Observations météo à CASSIS
WU-History script by Weather Underground - 1 mb